sensor_id;sensor_type;location;lat;lon;timestamp;pressure;altitude;pressure_sealevel;temperature;humidity
29379;BME280;16362;47.202;15.258;2023-06-22T00:01:19;96539.47;;;17.92;100.00
29379;BME280;16362;47.202;15.258;2023-06-22T00:03:46;96525.75;;;17.94;100.00
29379;BME280;16362;47.202;15.258;2023-06-22T00:06:13;96541.97;;;17.94;100.00
29379;BME280;16362;47.202;15.258;2023-06-22T00:08:40;96543.03;;;17.93;100.00
29379;BME280;16362;47.202;15.258;2023-06-22T00:11:07;96549.47;;;17.92;100.00
29379;BME280;16362;47.202;15.258;2023-06-22T00:13:33;96544.25;;;17.90;100.00
29379;BME280;16362;47.202;15.258;2023-06-22T00:16:00;96556.06;;;17.89;100.00
29379;BME280;16362;47.202;15.258;2023-06-22T00:18:27;96554.41;;;17.88;100.00
29379;BME280;16362;47.202;15.258;2023-06-22T00:20:55;96552.16;;;17.85;100.00
29379;BME280;16362;47.202;15.258;2023-06-22T00:23:25;96550.50;;;17.84;100.00
29379;BME280;16362;47.202;15.258;2023-06-22T00:25:52;96553.63;;;17.81;100.00
29379;BME280;16362;47.202;15.258;2023-06-22T00:28:19;96545.94;;;17.78;100.00
29379;BME280;16362;47.202;15.258;2023-06-22T00:30:46;96552.41;;;17.77;100.00
29379;BME280;16362;47.202;15.258;2023-06-22T00:33:12;96547.84;;;17.71;100.00
29379;BME280;16362;47.202;15.258;2023-06-22T00:35:39;96555.50;;;17.67;100.00
29379;BME280;16362;47.202;15.258;2023-06-22T00:38:07;96553.25;;;17.64;100.00
29379;BME280;16362;47.202;15.258;2023-06-22T00:40:35;96549.94;;;17.62;100.00
29379;BME280;16362;47.202;15.258;2023-06-22T00:43:02;96547.25;;;17.62;100.00
29379;BME280;16362;47.202;15.258;2023-06-22T00:45:29;96544.56;;;17.62;100.00
29379;BME280;16362;47.202;15.258;2023-06-22T00:47:59;96543.91;;;17.60;100.00
29379;BME280;16362;47.202;15.258;2023-06-22T00:50:28;96537.94;;;17.58;100.00
29379;BME280;16362;47.202;15.258;2023-06-22T00:52:57;96530.44;;;17.53;100.00
29379;BME280;16362;47.202;15.258;2023-06-22T00:55:26;96537.09;;;17.50;100.00
29379;BME280;16362;47.202;15.258;2023-06-22T00:57:53;96537.31;;;17.49;100.00
29379;BME280;16362;47.202;15.258;2023-06-22T01:00:25;96536.72;;;17.47;100.00
29379;BME280;16362;47.202;15.258;2023-06-22T01:02:52;96532.13;;;17.47;100.00
29379;BME280;16362;47.202;15.258;2023-06-22T01:05:21;96534.00;;;17.47;100.00
29379;BME280;16362;47.202;15.258;2023-06-22T01:08:04;96531.31;;;17.40;100.00
29379;BME280;16362;47.202;15.258;2023-06-22T01:10:51;96535.88;;;17.40;100.00
29379;BME280;16362;47.202;15.258;2023-06-22T01:18:44;96523.44;;;17.39;100.00
29379;BME280;16362;47.202;15.258;2023-06-22T01:21:16;96522.59;;;17.38;100.00
29379;BME280;16362;47.202;15.258;2023-06-22T01:29:35;96534.66;;;17.29;100.00
29379;BME280;16362;47.202;15.258;2023-06-22T01:32:04;96530.09;;;17.29;100.00
29379;BME280;16362;47.202;15.258;2023-06-22T01:34:35;96535.50;;;17.29;100.00
29379;BME280;16362;47.202;15.258;2023-06-22T01:37:03;96533.63;;;17.30;100.00
29379;BME280;16362;47.202;15.258;2023-06-22T01:39:31;96519.72;;;17.26;100.00
29379;BME280;16362;47.202;15.258;2023-06-22T01:41:59;96518.69;;;17.27;100.00
29379;BME280;16362;47.202;15.258;2023-06-22T01:44:26;96519.31;;;17.29;100.00
29379;BME280;16362;47.202;15.258;2023-06-22T01:46:53;96513.28;;;17.27;100.00
29379;BME280;16362;47.202;15.258;2023-06-22T01:49:21;96509.78;;;17.27;100.00
29379;BME280;16362;47.202;15.258;2023-06-22T01:51:48;96514.53;;;17.25;100.00
29379;BME280;16362;47.202;15.258;2023-06-22T01:54:15;96510.59;;;17.21;100.00
29379;BME280;16362;47.202;15.258;2023-06-22T01:56:42;96525.97;;;17.20;100.00
29379;BME280;16362;47.202;15.258;2023-06-22T01:59:24;96516.22;;;17.19;100.00
29379;BME280;16362;47.202;15.258;2023-06-22T02:02:09;96526.59;;;17.15;100.00
29379;BME280;16362;47.202;15.258;2023-06-22T02:04:47;96523.06;;;17.15;100.00
29379;BME280;16362;47.202;15.258;2023-06-22T02:07:17;96510.41;;;17.15;100.00
29379;BME280;16362;47.202;15.258;2023-06-22T02:09:46;96513.94;;;17.16;100.00
29379;BME280;16362;47.202;15.258;2023-06-22T02:12:18;96517.69;;;17.08;100.00
29379;BME280;16362;47.202;15.258;2023-06-22T02:14:48;96516.03;;;17.07;100.00
29379;BME280;16362;47.202;15.258;2023-06-22T02:17:16;96518.13;;;16.98;100.00
29379;BME280;16362;47.202;15.258;2023-06-22T02:19:43;96527.84;;;16.86;100.00
29379;BME280;16362;47.202;15.258;2023-06-22T02:22:09;96524.94;;;16.74;100.00
29379;BME280;16362;47.202;15.258;2023-06-22T02:24:36;96526.81;;;16.74;100.00
29379;BME280;16362;47.202;15.258;2023-06-22T02:27:03;96531.34;;;16.73;100.00
29379;BME280;16362;47.202;15.258;2023-06-22T02:29:30;96530.94;;;16.70;100.00
29379;BME280;16362;47.202;15.258;2023-06-22T02:31:57;96535.06;;;16.65;100.00
29379;BME280;16362;47.202;15.258;2023-06-22T02:34:24;96542.75;;;16.69;100.00
29379;BME280;16362;47.202;15.258;2023-06-22T02:36:51;96548.38;;;16.74;100.00
29379;BME280;16362;47.202;15.258;2023-06-22T02:39:23;96548.75;;;16.77;100.00
29379;BME280;16362;47.202;15.258;2023-06-22T02:41:51;96547.75;;;16.78;100.00
29379;BME280;16362;47.202;15.258;2023-06-22T02:44:18;96547.53;;;16.73;100.00
29379;BME280;16362;47.202;15.258;2023-06-22T02:46:46;96548.16;;;16.69;100.00
29379;BME280;16362;47.202;15.258;2023-06-22T02:49:13;96548.56;;;16.72;100.00
29379;BME280;16362;47.202;15.258;2023-06-22T02:51:44;96548.38;;;16.74;100.00
29379;BME280;16362;47.202;15.258;2023-06-22T02:54:11;96546.72;;;16.73;100.00
29379;BME280;16362;47.202;15.258;2023-06-22T02:56:38;96544.22;;;16.71;100.00
29379;BME280;16362;47.202;15.258;2023-06-22T02:59:07;96546.72;;;16.73;100.00
29379;BME280;16362;47.202;15.258;2023-06-22T03:01:33;96548.38;;;16.74;100.00
29379;BME280;16362;47.202;15.258;2023-06-22T03:04:07;96543.59;;;16.76;100.00
29379;BME280;16362;47.202;15.258;2023-06-22T03:06:34;96547.94;;;16.77;100.00
29379;BME280;16362;47.202;15.258;2023-06-22T03:09:04;96546.50;;;16.74;100.00
29379;BME280;16362;47.202;15.258;2023-06-22T03:11:32;96551.06;;;16.74;100.00
29379;BME280;16362;47.202;15.258;2023-06-22T03:14:00;96547.50;;;16.66;100.00
29379;BME280;16362;47.202;15.258;2023-06-22T03:16:27;96556.22;;;16.62;100.00
29379;BME280;16362;47.202;15.258;2023-06-22T03:18:55;96548.75;;;16.64;100.00
29379;BME280;16362;47.202;15.258;2023-06-22T03:21:22;96555.38;;;16.61;100.00
29379;BME280;16362;47.202;15.258;2023-06-22T03:23:49;96553.31;;;16.63;100.00
29379;BME280;16362;47.202;15.258;2023-06-22T03:26:17;96545.25;;;16.63;100.00
29379;BME280;16362;47.202;15.258;2023-06-22T03:28:44;96555.19;;;16.63;100.00
29379;BME280;16362;47.202;15.258;2023-06-22T03:31:11;96562.44;;;16.62;100.00
29379;BME280;16362;47.202;15.258;2023-06-22T03:33:37;96564.91;;;16.64;100.00
29379;BME280;16362;47.202;15.258;2023-06-22T03:36:04;96566.38;;;16.66;100.00
29379;BME280;16362;47.202;15.258;2023-06-22T03:38:31;96562.03;;;16.65;100.00
29379;BME280;16362;47.202;15.258;2023-06-22T03:40:57;96549.81;;;16.63;100.00
29379;BME280;16362;47.202;15.258;2023-06-22T03:43:24;96560.16;;;16.66;100.00
29379;BME280;16362;47.202;15.258;2023-06-22T03:45:51;96555.38;;;16.68;100.00
29379;BME280;16362;47.202;15.258;2023-06-22T03:48:17;96552.91;;;16.66;100.00
29379;BME280;16362;47.202;15.258;2023-06-22T03:50:44;96554.56;;;16.67;100.00
29379;BME280;16362;47.202;15.258;2023-06-22T03:53:11;96561.00;;;16.66;100.00
29379;BME280;16362;47.202;15.258;2023-06-22T03:55:50;96554.56;;;16.67;100.00
29379;BME280;16362;47.202;15.258;2023-06-22T03:58:18;96556.25;;;16.69;100.00
29379;BME280;16362;47.202;15.258;2023-06-22T04:00:52;96545.47;;;16.69;100.00
29379;BME280;16362;47.202;15.258;2023-06-22T04:03:19;96545.25;;;16.70;100.00
29379;BME280;16362;47.202;15.258;2023-06-22T04:05:47;96545.84;;;16.72;100.00
29379;BME280;16362;47.202;15.258;2023-06-22T04:08:15;96545.47;;;16.75;100.00
29379;BME280;16362;47.202;15.258;2023-06-22T04:10:41;96542.34;;;16.78;100.00
29379;BME280;16362;47.202;15.258;2023-06-22T04:13:08;96555.00;;;16.78;100.00
29379;BME280;16362;47.202;15.258;2023-06-22T04:15:35;96546.72;;;16.73;100.00
29379;BME280;16362;47.202;15.258;2023-06-22T04:18:02;96540.06;;;16.75;100.00
29379;BME280;16362;47.202;15.258;2023-06-22T04:20:28;96543.16;;;16.79;100.00
29379;BME280;16362;47.202;15.258;2023-06-22T04:22:55;96543.38;;;16.84;100.00
29379;BME280;16362;47.202;15.258;2023-06-22T04:25:22;96540.09;;;16.89;100.00
29379;BME280;16362;47.202;15.258;2023-06-22T04:27:49;96552.09;;;16.86;100.00
29379;BME280;16362;47.202;15.258;2023-06-22T04:30:16;96543.63;;;16.89;100.00
29379;BME280;16362;47.202;15.258;2023-06-22T04:32:44;96549.78;;;16.83;100.00
29379;BME280;16362;47.202;15.258;2023-06-22T04:35:11;96547.31;;;16.88;100.00
29379;BME280;16362;47.202;15.258;2023-06-22T04:37:38;96535.13;;;16.92;100.00
29379;BME280;16362;47.202;15.258;2023-06-22T04:40:06;96535.53;;;17.03;100.00
29379;BME280;16362;47.202;15.258;2023-06-22T04:42:38;96534.69;;;17.09;100.00
29379;BME280;16362;47.202;15.258;2023-06-22T04:45:05;96533.84;;;17.15;100.00
29379;BME280;16362;47.202;15.258;2023-06-22T04:47:32;96534.06;;;17.20;100.00
29379;BME280;16362;47.202;15.258;2023-06-22T04:49:58;96537.16;;;17.24;100.00
29379;BME280;16362;47.202;15.258;2023-06-22T04:52:25;96535.91;;;17.26;100.00
29379;BME280;16362;47.202;15.258;2023-06-22T04:54:52;96537.13;;;17.30;100.00
29379;BME280;16362;47.202;15.258;2023-06-22T04:57:22;96532.16;;;17.34;100.00
29379;BME280;16362;47.202;15.258;2023-06-22T04:59:57;96538.34;;;17.41;100.00
29379;BME280;16362;47.202;15.258;2023-06-22T05:02:24;96527.13;;;17.58;100.00
29379;BME280;16362;47.202;15.258;2023-06-22T05:04:54;96533.69;;;17.82;100.00
29379;BME280;16362;47.202;15.258;2023-06-22T05:07:23;96520.25;;;18.14;100.00
29379;BME280;16362;47.202;15.258;2023-06-22T05:09:52;96516.78;;;18.39;100.00
29379;BME280;16362;47.202;15.258;2023-06-22T05:12:18;96510.88;;;18.55;100.00
29379;BME280;16362;47.202;15.258;2023-06-22T05:14:45;96516.03;;;18.82;100.00
29379;BME280;16362;47.202;15.258;2023-06-22T05:17:11;96512.78;;;19.05;100.00
29379;BME280;16362;47.202;15.258;2023-06-22T05:19:41;96502.94;;;19.11;100.00
29379;BME280;16362;47.202;15.258;2023-06-22T05:22:11;96506.41;;;19.18;100.00
29379;BME280;16362;47.202;15.258;2023-06-22T05:24:38;96506.09;;;19.26;100.00
29379;BME280;16362;47.202;15.258;2023-06-22T05:27:05;96506.72;;;19.47;100.00
29379;BME280;16362;47.202;15.258;2023-06-22T05:29:32;96503.06;;;19.60;100.00
29379;BME280;16362;47.202;15.258;2023-06-22T05:31:59;96502.50;;;19.69;100.00
29379;BME280;16362;47.202;15.258;2023-06-22T05:34:25;96504.31;;;19.76;100.00
29379;BME280;16362;47.202;15.258;2023-06-22T05:36:52;96507.22;;;19.81;100.00
29379;BME280;16362;47.202;15.258;2023-06-22T05:39:19;96504.63;;;19.86;100.00
29379;BME280;16362;47.202;15.258;2023-06-22T05:41:46;96496.94;;;20.01;100.00
29379;BME280;16362;47.202;15.258;2023-06-22T05:44:13;96491.78;;;20.12;100.00
29379;BME280;16362;47.202;15.258;2023-06-22T05:46:41;96492.34;;;20.32;100.00
29379;BME280;16362;47.202;15.258;2023-06-22T05:49:11;96497.44;;;20.52;100.00
29379;BME280;16362;47.202;15.258;2023-06-22T05:51:39;96497.03;;;20.67;100.00
29379;BME280;16362;47.202;15.258;2023-06-22T05:54:05;96495.53;;;20.83;100.00
29379;BME280;16362;47.202;15.258;2023-06-22T05:56:32;96484.22;;;20.98;100.00
29379;BME280;16362;47.202;15.258;2023-06-22T05:58:59;96486.94;;;21.10;100.00
29379;BME280;16362;47.202;15.258;2023-06-22T06:01:25;96489.66;;;21.22;100.00
29379;BME280;16362;47.202;15.258;2023-06-22T06:03:52;96491.75;;;21.44;100.00
29379;BME280;16362;47.202;15.258;2023-06-22T06:06:19;96484.69;;;21.66;100.00
29379;BME280;16362;47.202;15.258;2023-06-22T06:08:55;96482.50;;;21.80;100.00
29379;BME280;16362;47.202;15.258;2023-06-22T06:11:22;96484.31;;;22.03;100.00
29379;BME280;16362;47.202;15.258;2023-06-22T06:13:49;96480.34;;;22.23;100.00
29379;BME280;16362;47.202;15.258;2023-06-22T06:16:16;96474.22;;;22.45;100.00
29379;BME280;16362;47.202;15.258;2023-06-22T06:18:43;96478.53;;;22.58;100.00
29379;BME280;16362;47.202;15.258;2023-06-22T06:21:09;96469.78;;;22.73;100.00
29379;BME280;16362;47.202;15.258;2023-06-22T06:23:36;96466.81;;;22.91;100.00
29379;BME280;16362;47.202;15.258;2023-06-22T06:26:03;96472.41;;;23.01;100.00
29379;BME280;16362;47.202;15.258;2023-06-22T06:28:34;96465.47;;;23.11;100.00
29379;BME280;16362;47.202;15.258;2023-06-22T06:31:01;96460.13;;;23.16;100.00
29379;BME280;16362;47.202;15.258;2023-06-22T06:33:28;96468.16;;;23.45;100.00
29379;BME280;16362;47.202;15.258;2023-06-22T06:35:54;96473.72;;;23.77;100.00
29379;BME280;16362;47.202;15.258;2023-06-22T06:38:22;96470.78;;;24.01;100.00
29379;BME280;16362;47.202;15.258;2023-06-22T06:40:49;96461.78;;;24.00;100.00
29379;BME280;16362;47.202;15.258;2023-06-22T06:43:16;96459.56;;;24.25;100.00
29379;BME280;16362;47.202;15.258;2023-06-22T06:45:43;96452.72;;;24.49;100.00
29379;BME280;16362;47.202;15.258;2023-06-22T06:48:09;96453.25;;;24.74;100.00
29379;BME280;16362;47.202;15.258;2023-06-22T06:50:36;96451.19;;;24.91;100.00
29379;BME280;16362;47.202;15.258;2023-06-22T06:53:03;96453.75;;;25.08;100.00
29379;BME280;16362;47.202;15.258;2023-06-22T06:55:30;96446.59;;;25.34;100.00
29379;BME280;16362;47.202;15.258;2023-06-22T06:57:59;96452.66;;;25.47;100.00
29379;BME280;16362;47.202;15.258;2023-06-22T07:00:26;96450.53;;;25.59;100.00
29379;BME280;16362;47.202;15.258;2023-06-22T07:02:54;96444.97;;;25.44;100.00
29379;BME280;16362;47.202;15.258;2023-06-22T07:05:20;96446.69;;;25.55;99.18
29379;BME280;16362;47.202;15.258;2023-06-22T07:07:47;96438.22;;;25.57;100.00
29379;BME280;16362;47.202;15.258;2023-06-22T07:10:14;96442.56;;;25.52;100.00
29379;BME280;16362;47.202;15.258;2023-06-22T07:12:42;96450.19;;;25.45;100.00
29379;BME280;16362;47.202;15.258;2023-06-22T07:15:09;96447.72;;;25.49;98.92
29379;BME280;16362;47.202;15.258;2023-06-22T07:17:37;96448.81;;;25.43;98.76
29379;BME280;16362;47.202;15.258;2023-06-22T07:20:04;96440.69;;;25.58;98.12
29379;BME280;16362;47.202;15.258;2023-06-22T07:22:39;96451.31;;;25.49;94.73
29379;BME280;16362;47.202;15.258;2023-06-22T07:25:07;96443.97;;;25.60;96.86
29379;BME280;16362;47.202;15.258;2023-06-22T07:27:38;96440.84;;;25.99;97.53
29379;BME280;16362;47.202;15.258;2023-06-22T07:30:07;96425.63;;;26.29;95.19
29379;BME280;16362;47.202;15.258;2023-06-22T07:32:33;96424.25;;;26.42;91.79
29379;BME280;16362;47.202;15.258;2023-06-22T07:35:00;96432.19;;;26.54;91.42
29379;BME280;16362;47.202;15.258;2023-06-22T07:37:28;96433.19;;;26.01;92.36
29379;BME280;16362;47.202;15.258;2023-06-22T07:39:55;96437.84;;;26.01;91.20
29379;BME280;16362;47.202;15.258;2023-06-22T07:42:26;96437.34;;;26.25;90.16
29379;BME280;16362;47.202;15.258;2023-06-22T07:44:53;96431.63;;;26.31;91.21
29379;BME280;16362;47.202;15.258;2023-06-22T07:47:20;96436.84;;;26.48;92.84
29379;BME280;16362;47.202;15.258;2023-06-22T07:49:51;96430.03;;;26.77;90.78
29379;BME280;16362;47.202;15.258;2023-06-22T07:52:21;96433.84;;;26.65;92.43
29379;BME280;16362;47.202;15.258;2023-06-22T07:54:47;96425.09;;;26.79;92.14
29379;BME280;16362;47.202;15.258;2023-06-22T07:57:14;96435.25;;;26.83;93.32
29379;BME280;16362;47.202;15.258;2023-06-22T07:59:41;96431.09;;;26.96;91.09
29379;BME280;16362;47.202;15.258;2023-06-22T08:02:07;96425.63;;;26.96;92.48
29379;BME280;16362;47.202;15.258;2023-06-22T08:04:36;96420.97;;;27.02;87.02
29379;BME280;16362;47.202;15.258;2023-06-22T08:07:03;96425.06;;;26.99;87.60
29379;BME280;16362;47.202;15.258;2023-06-22T08:09:32;96427.53;;;27.06;84.09
29379;BME280;16362;47.202;15.258;2023-06-22T08:11:59;96428.09;;;27.08;83.46
29379;BME280;16362;47.202;15.258;2023-06-22T08:14:26;96428.38;;;27.12;82.62
29379;BME280;16362;47.202;15.258;2023-06-22T08:16:53;96421.81;;;27.08;80.35
29379;BME280;16362;47.202;15.258;2023-06-22T08:19:20;96417.44;;;26.55;84.36
29379;BME280;16362;47.202;15.258;2023-06-22T08:21:46;96416.88;;;26.73;89.65
29379;BME280;16362;47.202;15.258;2023-06-22T08:24:13;96417.41;;;26.65;85.13
29379;BME280;16362;47.202;15.258;2023-06-22T08:26:40;96421.00;;;26.81;82.88
29379;BME280;16362;47.202;15.258;2023-06-22T08:29:06;96414.16;;;26.84;83.96
29379;BME280;16362;47.202;15.258;2023-06-22T08:31:33;96408.69;;;26.79;84.16
29379;BME280;16362;47.202;15.258;2023-06-22T08:34:01;96411.66;;;27.13;83.17
29379;BME280;16362;47.202;15.258;2023-06-22T08:36:27;96414.91;;;27.26;85.74
29379;BME280;16362;47.202;15.258;2023-06-22T08:38:59;96409.66;;;27.45;79.28
29379;BME280;16362;47.202;15.258;2023-06-22T08:41:28;96406.31;;;27.63;78.96
29379;BME280;16362;47.202;15.258;2023-06-22T08:43:55;96412.09;;;27.51;80.39
29379;BME280;16362;47.202;15.258;2023-06-22T08:46:22;96408.56;;;27.30;77.77
29379;BME280;16362;47.202;15.258;2023-06-22T08:48:51;96408.00;;;27.54;79.75
29379;BME280;16362;47.202;15.258;2023-06-22T08:51:17;96415.06;;;27.60;81.46
29379;BME280;16362;47.202;15.258;2023-06-22T08:53:44;96410.75;;;27.49;81.33
29379;BME280;16362;47.202;15.258;2023-06-22T08:56:11;96415.34;;;27.64;76.63
29379;BME280;16362;47.202;15.258;2023-06-22T08:58:38;96410.13;;;27.72;77.85
29379;BME280;16362;47.202;15.258;2023-06-22T09:01:05;96401.63;;;27.69;79.73
29379;BME280;16362;47.202;15.258;2023-06-22T09:03:31;96392.75;;;27.87;82.38
29379;BME280;16362;47.202;15.258;2023-06-22T09:05:59;96398.75;;;27.89;80.68
29379;BME280;16362;47.202;15.258;2023-06-22T09:08:26;96397.59;;;28.06;78.43
29379;BME280;16362;47.202;15.258;2023-06-22T09:10:52;96391.94;;;27.87;78.08
29379;BME280;16362;47.202;15.258;2023-06-22T09:13:19;96391.03;;;28.07;81.32
29379;BME280;16362;47.202;15.258;2023-06-22T09:15:46;96399.94;;;28.28;77.61
29379;BME280;16362;47.202;15.258;2023-06-22T09:18:13;96393.84;;;28.36;83.25
29379;BME280;16362;47.202;15.258;2023-06-22T09:20:40;96392.75;;;28.37;78.35
29379;BME280;16362;47.202;15.258;2023-06-22T09:23:07;96384.91;;;28.55;79.22
29379;BME280;16362;47.202;15.258;2023-06-22T09:25:34;96380.34;;;28.40;75.67
29379;BME280;16362;47.202;15.258;2023-06-22T09:28:00;96387.00;;;28.34;76.40
29379;BME280;16362;47.202;15.258;2023-06-22T09:30:27;96379.47;;;28.50;76.49
29379;BME280;16362;47.202;15.258;2023-06-22T09:32:54;96374.22;;;28.53;78.69
29379;BME280;16362;47.202;15.258;2023-06-22T09:35:21;96379.06;;;28.32;77.02
29379;BME280;16362;47.202;15.258;2023-06-22T09:37:48;96368.69;;;28.24;80.55
29379;BME280;16362;47.202;15.258;2023-06-22T09:40:14;96377.56;;;28.45;78.67
29379;BME280;16362;47.202;15.258;2023-06-22T09:42:43;96377.66;;;28.69;76.18
29379;BME280;16362;47.202;15.258;2023-06-22T09:45:10;96380.06;;;29.05;75.20
29379;BME280;16362;47.202;15.258;2023-06-22T09:47:37;96372.09;;;29.33;76.56
29379;BME280;16362;47.202;15.258;2023-06-22T09:50:05;96370.66;;;29.12;71.62
29379;BME280;16362;47.202;15.258;2023-06-22T09:52:32;96366.56;;;29.09;74.37
29379;BME280;16362;47.202;15.258;2023-06-22T09:55:14;96370.25;;;28.99;75.63
29379;BME280;16362;47.202;15.258;2023-06-22T09:57:42;96370.59;;;29.17;74.07
29379;BME280;16362;47.202;15.258;2023-06-22T10:00:09;96372.06;;;29.09;73.40
29379;BME280;16362;47.202;15.258;2023-06-22T10:02:41;96365.56;;;29.24;75.14
29379;BME280;16362;47.202;15.258;2023-06-22T10:05:08;96365.88;;;29.22;70.13
29379;BME280;16362;47.202;15.258;2023-06-22T10:07:35;96365.16;;;29.12;72.57
29379;BME280;16362;47.202;15.258;2023-06-22T10:10:07;96357.34;;;29.00;73.52
29379;BME280;16362;47.202;15.258;2023-06-22T10:12:33;96357.69;;;29.17;73.29
29379;BME280;16362;47.202;15.258;2023-06-22T10:15:00;96347.81;;;29.16;73.71
29379;BME280;16362;47.202;15.258;2023-06-22T10:17:27;96346.31;;;29.29;73.55
29379;BME280;16362;47.202;15.258;2023-06-22T10:19:54;96345.84;;;29.46;72.81
29379;BME280;16362;47.202;15.258;2023-06-22T10:22:21;96342.19;;;29.51;72.89
29379;BME280;16362;47.202;15.258;2023-06-22T10:24:47;96346.16;;;29.64;71.83
29379;BME280;16362;47.202;15.258;2023-06-22T10:27:14;96343.72;;;29.81;71.66
29379;BME280;16362;47.202;15.258;2023-06-22T10:29:41;96350.03;;;29.82;71.03
29379;BME280;16362;47.202;15.258;2023-06-22T10:32:08;96341.63;;;29.54;73.23
29379;BME280;16362;47.202;15.258;2023-06-22T10:34:34;96337.91;;;29.64;71.32
29379;BME280;16362;47.202;15.258;2023-06-22T10:37:01;96337.97;;;29.59;71.89
29379;BME280;16362;47.202;15.258;2023-06-22T10:39:28;96338.78;;;29.59;73.56
29379;BME280;16362;47.202;15.258;2023-06-22T10:41:54;96328.84;;;29.63;73.31
29379;BME280;16362;47.202;15.258;2023-06-22T10:44:22;96333.59;;;29.77;73.00
29379;BME280;16362;47.202;15.258;2023-06-22T10:46:49;96321.78;;;29.76;70.29
29379;BME280;16362;47.202;15.258;2023-06-22T10:49:15;96328.44;;;29.51;71.99
29379;BME280;16362;47.202;15.258;2023-06-22T10:51:42;96326.25;;;29.53;71.86
29379;BME280;16362;47.202;15.258;2023-06-22T10:54:09;96316.00;;;29.78;72.35
29379;BME280;16362;47.202;15.258;2023-06-22T10:56:35;96312.47;;;29.96;72.71
29379;BME280;16362;47.202;15.258;2023-06-22T10:59:02;96306.56;;;29.84;69.92
29379;BME280;16362;47.202;15.258;2023-06-22T11:01:29;96317.28;;;30.04;69.53
29379;BME280;16362;47.202;15.258;2023-06-22T11:04:02;96314.75;;;29.89;71.70
29379;BME280;16362;47.202;15.258;2023-06-22T11:06:30;96314.72;;;29.70;72.69
29379;BME280;16362;47.202;15.258;2023-06-22T11:08:56;96310.97;;;29.42;71.82
29379;BME280;16362;47.202;15.258;2023-06-22T11:11:37;96310.13;;;29.65;71.97
29379;BME280;16362;47.202;15.258;2023-06-22T11:14:04;96303.34;;;29.77;71.66
29379;BME280;16362;47.202;15.258;2023-06-22T11:16:31;96308.44;;;29.88;68.78
29379;BME280;16362;47.202;15.258;2023-06-22T11:18:57;96310.94;;;29.85;69.56
29379;BME280;16362;47.202;15.258;2023-06-22T11:21:24;96310.28;;;30.12;70.43
29379;BME280;16362;47.202;15.258;2023-06-22T11:23:51;96303.59;;;29.99;72.76
29379;BME280;16362;47.202;15.258;2023-06-22T11:26:18;96301.22;;;29.93;72.21
29379;BME280;16362;47.202;15.258;2023-06-22T11:28:44;96304.22;;;29.96;71.73
29379;BME280;16362;47.202;15.258;2023-06-22T11:31:11;96297.78;;;29.82;70.20
29379;BME280;16362;47.202;15.258;2023-06-22T11:33:51;96296.66;;;29.83;71.83
29379;BME280;16362;47.202;15.258;2023-06-22T11:36:18;96303.66;;;29.56;71.45
29379;BME280;16362;47.202;15.258;2023-06-22T11:38:45;96295.41;;;29.56;72.50
29379;BME280;16362;47.202;15.258;2023-06-22T11:41:12;96297.84;;;29.77;73.04
29379;BME280;16362;47.202;15.258;2023-06-22T11:43:39;96297.78;;;29.44;70.89
29379;BME280;16362;47.202;15.258;2023-06-22T11:46:05;96300.75;;;29.47;71.32
29379;BME280;16362;47.202;15.258;2023-06-22T11:48:32;96290.13;;;29.60;71.74
29379;BME280;16362;47.202;15.258;2023-06-22T11:50:59;96276.53;;;29.68;71.84
29379;BME280;16362;47.202;15.258;2023-06-22T11:53:26;96278.59;;;29.77;71.95
29379;BME280;16362;47.202;15.258;2023-06-22T11:55:53;96274.75;;;29.78;73.40
29379;BME280;16362;47.202;15.258;2023-06-22T11:58:22;96278.16;;;29.69;71.55
29379;BME280;16362;47.202;15.258;2023-06-22T12:00:49;96274.63;;;29.69;71.73
29379;BME280;16362;47.202;15.258;2023-06-22T12:03:18;96276.09;;;29.80;75.31
29379;BME280;16362;47.202;15.258;2023-06-22T12:05:45;96286.19;;;29.66;71.65
29379;BME280;16362;47.202;15.258;2023-06-22T12:08:12;96277.81;;;29.57;73.18
29379;BME280;16362;47.202;15.258;2023-06-22T12:10:40;96266.25;;;29.55;73.13
29379;BME280;16362;47.202;15.258;2023-06-22T12:13:07;96253.06;;;29.57;72.58
29379;BME280;16362;47.202;15.258;2023-06-22T12:15:33;96261.53;;;29.61;74.79
29379;BME280;16362;47.202;15.258;2023-06-22T12:18:00;96249.91;;;29.83;71.94
29379;BME280;16362;47.202;15.258;2023-06-22T12:20:28;96249.56;;;29.89;69.90
29379;BME280;16362;47.202;15.258;2023-06-22T12:22:55;96239.91;;;29.92;71.95
29379;BME280;16362;47.202;15.258;2023-06-22T12:25:24;96234.91;;;29.94;74.23
29379;BME280;16362;47.202;15.258;2023-06-22T12:27:51;96240.09;;;29.77;73.06
29379;BME280;16362;47.202;15.258;2023-06-22T12:30:18;96236.97;;;29.83;73.27
29379;BME280;16362;47.202;15.258;2023-06-22T12:32:44;96247.78;;;29.80;71.99
29379;BME280;16362;47.202;15.258;2023-06-22T12:35:11;96240.56;;;29.84;73.88
29379;BME280;16362;47.202;15.258;2023-06-22T12:37:43;96240.22;;;29.90;73.42
29379;BME280;16362;47.202;15.258;2023-06-22T12:40:10;96238.91;;;29.83;73.23
29379;BME280;16362;47.202;15.258;2023-06-22T12:42:37;96240.22;;;29.90;75.79
29379;BME280;16362;47.202;15.258;2023-06-22T12:45:04;96238.34;;;29.86;73.21
29379;BME280;16362;47.202;15.258;2023-06-22T12:47:31;96236.63;;;29.71;76.25
29379;BME280;16362;47.202;15.258;2023-06-22T12:49:58;96239.91;;;29.54;74.29
29379;BME280;16362;47.202;15.258;2023-06-22T12:52:25;96239.16;;;29.48;73.34
29379;BME280;16362;47.202;15.258;2023-06-22T12:54:51;96239.25;;;29.62;74.30
29379;BME280;16362;47.202;15.258;2023-06-22T12:57:21;96233.28;;;29.55;73.09
29379;BME280;16362;47.202;15.258;2023-06-22T12:59:48;96243.34;;;29.65;76.24